sensor_id;sensor_type;location;lat;lon;timestamp;pressure;altitude;pressure_sealevel;temperature;humidity
74181;BME280;62544;50.826;14.354;2023-03-14T00:00:11;97353.36;;;10.43;92.32
74181;BME280;62544;50.826;14.354;2023-03-14T00:04:31;97355.13;;;10.42;92.63
74181;BME280;62544;50.826;14.354;2023-03-14T00:08:55;97357.42;;;10.40;93.13
74181;BME280;62544;50.826;14.354;2023-03-14T00:13:19;97361.86;;;10.41;92.68
74181;BME280;62544;50.826;14.354;2023-03-14T00:17:43;97366.97;;;10.44;91.76
74181;BME280;62544;50.826;14.354;2023-03-14T00:22:07;97372.69;;;10.45;91.38
74181;BME280;62544;50.826;14.354;2023-03-14T00:26:31;97371.29;;;10.44;92.35
74181;BME280;62544;50.826;14.354;2023-03-14T00:30:55;97349.89;;;10.37;93.12
74181;BME280;62544;50.826;14.354;2023-03-14T00:35:19;97329.60;;;10.25;96.13
74181;BME280;62544;50.826;14.354;2023-03-14T00:39:43;97310.57;;;10.16;96.61
74181;BME280;62544;50.826;14.354;2023-03-14T00:44:07;97290.48;;;10.15;95.79
74181;BME280;62544;50.826;14.354;2023-03-14T00:48:31;97268.90;;;10.18;93.89
74181;BME280;62544;50.826;14.354;2023-03-14T00:52:55;97252.04;;;10.16;94.63
74181;BME280;62544;50.826;14.354;2023-03-14T00:57:19;97241.67;;;10.09;95.68
74181;BME280;62544;50.826;14.354;2023-03-14T01:01:43;97233.34;;;9.98;98.59
74181;BME280;62544;50.826;14.354;2023-03-14T01:06:11;97231.20;;;9.89;99.32
74181;BME280;62544;50.826;14.354;2023-03-14T01:10:31;97229.32;;;9.84;99.20
74181;BME280;62544;50.826;14.354;2023-03-14T01:14:55;97227.83;;;9.84;97.92
74181;BME280;62544;50.826;14.354;2023-03-14T01:19:19;97225.96;;;9.86;97.15
74181;BME280;62544;50.826;14.354;2023-03-14T01:23:43;97224.03;;;9.91;95.58
74181;BME280;62544;50.826;14.354;2023-03-14T01:28:07;97223.99;;;9.95;94.78
74181;BME280;62544;50.826;14.354;2023-03-14T01:32:31;97229.63;;;9.95;94.68
74181;BME280;62544;50.826;14.354;2023-03-14T01:36:55;97234.84;;;9.94;96.34
74181;BME280;62544;50.826;14.354;2023-03-14T01:41:21;97232.03;;;9.87;98.43
74181;BME280;62544;50.826;14.354;2023-03-14T01:50:08;97230.44;;;9.85;97.57
74181;BME280;62544;50.826;14.354;2023-03-14T01:54:36;97228.59;;;9.82;97.99
74181;BME280;62544;50.826;14.354;2023-03-14T01:58:55;97225.81;;;9.80;97.27
74181;BME280;62544;50.826;14.354;2023-03-14T02:03:20;97220.76;;;9.84;95.85
74181;BME280;62544;50.826;14.354;2023-03-14T02:07:50;97216.90;;;9.88;95.43
74181;BME280;62544;50.826;14.354;2023-03-14T02:12:07;97210.80;;;9.87;96.06
74181;BME280;62544;50.826;14.354;2023-03-14T02:16:31;97202.36;;;9.92;95.03
74181;BME280;62544;50.826;14.354;2023-03-14T02:29:51;97189.89;;;9.90;95.18
74181;BME280;62544;50.826;14.354;2023-03-14T02:34:07;97184.81;;;9.93;93.91
74181;BME280;62544;50.826;14.354;2023-03-14T02:42:55;97176.62;;;9.89;93.33
74181;BME280;62544;50.826;14.354;2023-03-14T02:47:20;97170.56;;;9.85;92.11
74181;BME280;62544;50.826;14.354;2023-03-14T02:51:43;97168.42;;;9.78;92.95
74181;BME280;62544;50.826;14.354;2023-03-14T02:56:07;97167.41;;;9.69;92.83
74181;BME280;62544;50.826;14.354;2023-03-14T03:00:31;97164.35;;;9.60;93.36
74181;BME280;62544;50.826;14.354;2023-03-14T03:04:55;97160.58;;;9.50;95.05
74181;BME280;62544;50.826;14.354;2023-03-14T03:09:19;97160.26;;;9.48;93.60
74181;BME280;62544;50.826;14.354;2023-03-14T03:13:43;97161.05;;;9.48;92.37
74181;BME280;62544;50.826;14.354;2023-03-14T03:18:07;97162.02;;;9.43;94.32
74181;BME280;62544;50.826;14.354;2023-03-14T03:22:31;97160.02;;;9.32;96.08
74181;BME280;62544;50.826;14.354;2023-03-14T03:26:55;97157.47;;;9.23;96.78
74181;BME280;62544;50.826;14.354;2023-03-14T03:31:19;97154.85;;;9.20;95.76
74181;BME280;62544;50.826;14.354;2023-03-14T03:35:44;97150.97;;;9.24;93.07
74181;BME280;62544;50.826;14.354;2023-03-14T03:40:07;97148.19;;;9.28;91.85
74181;BME280;62544;50.826;14.354;2023-03-14T03:44:31;97144.84;;;9.26;92.47
74181;BME280;62544;50.826;14.354;2023-03-14T03:48:55;97147.06;;;9.24;91.78
74181;BME280;62544;50.826;14.354;2023-03-14T03:53:19;97150.87;;;9.14;94.55
74181;BME280;62544;50.826;14.354;2023-03-14T03:57:43;97151.57;;;9.13;93.09
74181;BME280;62544;50.826;14.354;2023-03-14T04:02:07;97151.67;;;9.17;90.83
74181;BME280;62544;50.826;14.354;2023-03-14T04:06:31;97150.11;;;9.20;90.25
74181;BME280;62544;50.826;14.354;2023-03-14T04:10:56;97146.53;;;9.20;90.82
74181;BME280;62544;50.826;14.354;2023-03-14T04:15:19;97140.83;;;9.15;91.29
74181;BME280;62544;50.826;14.354;2023-03-14T04:19:43;97133.98;;;9.11;90.48
74181;BME280;62544;50.826;14.354;2023-03-14T04:24:08;97130.10;;;9.01;92.27
74181;BME280;62544;50.826;14.354;2023-03-14T04:28:31;97126.82;;;8.91;93.03
74181;BME280;62544;50.826;14.354;2023-03-14T04:32:55;97119.50;;;8.84;92.31
74181;BME280;62544;50.826;14.354;2023-03-14T04:37:19;97110.99;;;8.80;91.65
74181;BME280;62544;50.826;14.354;2023-03-14T04:41:44;97106.34;;;8.74;92.18
74181;BME280;62544;50.826;14.354;2023-03-14T04:46:07;97103.93;;;8.71;91.27
74181;BME280;62544;50.826;14.354;2023-03-14T04:50:31;97103.89;;;8.68;91.04
74181;BME280;62544;50.826;14.354;2023-03-14T04:54:55;97104.52;;;8.64;91.47
74181;BME280;62544;50.826;14.354;2023-03-14T04:59:19;97103.63;;;8.61;91.51
74181;BME280;62544;50.826;14.354;2023-03-14T05:03:43;97103.85;;;8.56;92.51
74181;BME280;62544;50.826;14.354;2023-03-14T05:08:07;97105.27;;;8.51;92.61
74181;BME280;62544;50.826;14.354;2023-03-14T05:12:31;97109.59;;;8.45;92.46
74181;BME280;62544;50.826;14.354;2023-03-14T05:16:55;97116.77;;;8.41;93.34
74181;BME280;62544;50.826;14.354;2023-03-14T05:21:19;97122.03;;;8.40;91.70
74181;BME280;62544;50.826;14.354;2023-03-14T05:25:43;97123.43;;;8.30;95.19
74181;BME280;62544;50.826;14.354;2023-03-14T05:30:07;97118.03;;;8.29;93.01
74181;BME280;62544;50.826;14.354;2023-03-14T05:34:31;97115.47;;;8.24;94.33
74181;BME280;62544;50.826;14.354;2023-03-14T05:38:55;97112.27;;;8.27;92.84
74181;BME280;62544;50.826;14.354;2023-03-14T05:43:19;97108.84;;;8.33;91.83
74181;BME280;62544;50.826;14.354;2023-03-14T05:47:43;97103.79;;;8.40;91.42
74181;BME280;62544;50.826;14.354;2023-03-14T05:52:07;97092.28;;;8.46;91.16
74181;BME280;62544;50.826;14.354;2023-03-14T05:56:31;97080.41;;;8.48;92.05
74181;BME280;62544;50.826;14.354;2023-03-14T06:00:55;97069.08;;;8.46;93.46
74181;BME280;62544;50.826;14.354;2023-03-14T06:05:19;97060.74;;;8.43;93.94
74181;BME280;62544;50.826;14.354;2023-03-14T06:09:43;97059.01;;;8.39;94.95
74181;BME280;62544;50.826;14.354;2023-03-14T06:14:07;97058.35;;;8.41;93.77
74181;BME280;62544;50.826;14.354;2023-03-14T06:18:31;97057.40;;;8.50;92.17
74181;BME280;62544;50.826;14.354;2023-03-14T06:22:55;97059.19;;;8.64;91.53
74181;BME280;62544;50.826;14.354;2023-03-14T06:27:19;97062.08;;;8.80;89.85
74181;BME280;62544;50.826;14.354;2023-03-14T06:31:43;97067.27;;;8.94;89.68
74181;BME280;62544;50.826;14.354;2023-03-14T06:36:07;97073.68;;;9.08;89.66
74181;BME280;62544;50.826;14.354;2023-03-14T06:40:31;97076.48;;;9.20;88.94
74181;BME280;62544;50.826;14.354;2023-03-14T06:44:55;97079.05;;;9.31;88.69
74181;BME280;62544;50.826;14.354;2023-03-14T06:49:19;97082.14;;;9.41;88.04
74181;BME280;62544;50.826;14.354;2023-03-14T06:53:43;97089.36;;;9.54;87.59
74181;BME280;62544;50.826;14.354;2023-03-14T06:58:07;97098.86;;;9.68;86.79
74181;BME280;62544;50.826;14.354;2023-03-14T07:02:31;97108.98;;;9.79;87.06
74181;BME280;62544;50.826;14.354;2023-03-14T07:06:55;97115.84;;;9.90;87.00
74181;BME280;62544;50.826;14.354;2023-03-14T07:11:19;97119.40;;;10.05;85.86
74181;BME280;62544;50.826;14.354;2023-03-14T07:15:43;97120.56;;;10.20;85.60
74181;BME280;62544;50.826;14.354;2023-03-14T07:20:07;97120.40;;;10.31;85.01
74181;BME280;62544;50.826;14.354;2023-03-14T07:24:31;97122.36;;;10.36;86.55
74181;BME280;62544;50.826;14.354;2023-03-14T07:28:55;97121.28;;;10.44;86.43
74181;BME280;62544;50.826;14.354;2023-03-14T07:33:19;97119.83;;;10.55;86.98
74181;BME280;62544;50.826;14.354;2023-03-14T07:37:43;97116.99;;;10.69;85.83
74181;BME280;62544;50.826;14.354;2023-03-14T07:42:07;97115.61;;;10.84;84.90
74181;BME280;62544;50.826;14.354;2023-03-14T07:46:31;97116.20;;;10.97;85.03
74181;BME280;62544;50.826;14.354;2023-03-14T07:50:55;97118.30;;;11.06;85.36
74181;BME280;62544;50.826;14.354;2023-03-14T07:55:19;97120.43;;;11.13;85.71
74181;BME280;62544;50.826;14.354;2023-03-14T07:59:43;97119.41;;;11.27;84.49
74181;BME280;62544;50.826;14.354;2023-03-14T08:04:07;97118.19;;;11.47;83.46
74181;BME280;62544;50.826;14.354;2023-03-14T08:08:31;97116.74;;;11.58;81.18
74181;BME280;62544;50.826;14.354;2023-03-14T08:12:55;97116.56;;;11.53;82.13
74181;BME280;62544;50.826;14.354;2023-03-14T08:17:19;97116.60;;;11.46;81.60
74181;BME280;62544;50.826;14.354;2023-03-14T08:21:43;97117.42;;;11.33;85.01
74181;BME280;62544;50.826;14.354;2023-03-14T08:26:07;97116.89;;;11.15;84.83
74181;BME280;62544;50.826;14.354;2023-03-14T08:30:30;97113.53;;;11.03;84.82
74181;BME280;62544;50.826;14.354;2023-03-14T08:34:54;97112.77;;;10.91;85.12
74181;BME280;62544;50.826;14.354;2023-03-14T08:39:19;97113.56;;;10.82;84.85
74181;BME280;62544;50.826;14.354;2023-03-14T08:43:43;97111.25;;;10.84;84.47
74181;BME280;62544;50.826;14.354;2023-03-14T08:48:07;97111.32;;;10.97;83.50
74181;BME280;62544;50.826;14.354;2023-03-14T08:52:31;97112.91;;;11.14;82.36
74181;BME280;62544;50.826;14.354;2023-03-14T08:56:55;97114.78;;;11.28;80.06
74181;BME280;62544;50.826;14.354;2023-03-14T09:01:19;97116.50;;;11.39;80.57
74181;BME280;62544;50.826;14.354;2023-03-14T09:05:42;97117.02;;;11.45;81.42
74181;BME280;62544;50.826;14.354;2023-03-14T09:10:07;97116.91;;;11.43;81.99
74181;BME280;62544;50.826;14.354;2023-03-14T09:14:30;97116.13;;;11.40;82.09
74181;BME280;62544;50.826;14.354;2023-03-14T09:18:54;97114.64;;;11.40;82.09
74181;BME280;62544;50.826;14.354;2023-03-14T09:23:18;97114.12;;;11.41;80.40
74181;BME280;62544;50.826;14.354;2023-03-14T09:27:42;97115.16;;;11.48;79.68
74181;BME280;62544;50.826;14.354;2023-03-14T09:32:06;97114.94;;;11.50;80.19
74181;BME280;62544;50.826;14.354;2023-03-14T09:36:30;97115.73;;;11.56;78.62
74181;BME280;62544;50.826;14.354;2023-03-14T09:40:55;97115.67;;;11.69;79.30
74181;BME280;62544;50.826;14.354;2023-03-14T09:45:23;97114.25;;;11.80;77.48
74181;BME280;62544;50.826;14.354;2023-03-14T09:49:42;97113.73;;;11.90;78.14
74181;BME280;62544;50.826;14.354;2023-03-14T09:54:15;97114.61;;;12.00;77.72
74181;BME280;62544;50.826;14.354;2023-03-14T09:58:32;97115.45;;;12.20;74.81
74181;BME280;62544;50.826;14.354;2023-03-14T10:03:12;97116.85;;;12.43;74.07
74181;BME280;62544;50.826;14.354;2023-03-14T10:07:21;97116.66;;;12.70;72.84
74181;BME280;62544;50.826;14.354;2023-03-14T10:11:43;97114.38;;;12.93;72.14
74181;BME280;62544;50.826;14.354;2023-03-14T10:16:07;97113.79;;;13.19;70.07
74181;BME280;62544;50.826;14.354;2023-03-14T10:20:34;97114.26;;;13.46;66.93
74181;BME280;62544;50.826;14.354;2023-03-14T10:24:55;97114.64;;;13.67;66.84
74181;BME280;62544;50.826;14.354;2023-03-14T10:29:18;97113.64;;;13.86;68.92
74181;BME280;62544;50.826;14.354;2023-03-14T10:33:42;97112.52;;;13.97;65.24
74181;BME280;62544;50.826;14.354;2023-03-14T10:38:11;97112.34;;;14.00;66.98
74181;BME280;62544;50.826;14.354;2023-03-14T10:42:48;97111.92;;;14.09;68.59
74181;BME280;62544;50.826;14.354;2023-03-14T10:47:01;97111.10;;;14.10;66.77
74181;BME280;62544;50.826;14.354;2023-03-14T10:51:22;97110.42;;;14.06;66.71
74181;BME280;62544;50.826;14.354;2023-03-14T10:55:43;97110.61;;;13.99;68.48
74181;BME280;62544;50.826;14.354;2023-03-14T11:00:16;97109.92;;;13.94;68.23
74181;BME280;62544;50.826;14.354;2023-03-14T11:04:46;97108.89;;;13.92;70.40
74181;BME280;62544;50.826;14.354;2023-03-14T11:09:01;97109.19;;;13.82;70.00
74181;BME280;62544;50.826;14.354;2023-03-14T11:13:25;97108.53;;;13.69;71.28
74181;BME280;62544;50.826;14.354;2023-03-14T11:30:55;97114.03;;;13.34;72.41
74181;BME280;62544;50.826;14.354;2023-03-14T11:35:33;97114.79;;;13.27;72.00
74181;BME280;62544;50.826;14.354;2023-03-14T11:39:47;97113.05;;;13.21;69.24
74181;BME280;62544;50.826;14.354;2023-03-14T11:44:10;97109.28;;;13.22;66.14
74181;BME280;62544;50.826;14.354;2023-03-14T11:48:38;97106.14;;;13.18;67.07
74181;BME280;62544;50.826;14.354;2023-03-14T11:53:11;97103.85;;;13.19;65.59
74181;BME280;62544;50.826;14.354;2023-03-14T11:57:19;97101.56;;;13.25;65.04
74181;BME280;62544;50.826;14.354;2023-03-14T12:01:51;97098.22;;;13.34;63.20
74181;BME280;62544;50.826;14.354;2023-03-14T12:06:26;97096.08;;;13.53;63.77
74181;BME280;62544;50.826;14.354;2023-03-14T12:10:35;97092.89;;;13.79;61.48
74181;BME280;62544;50.826;14.354;2023-03-14T12:14:58;97089.72;;;14.02;63.74
74181;BME280;62544;50.826;14.354;2023-03-14T12:19:24;97086.13;;;14.11;59.64
74181;BME280;62544;50.826;14.354;2023-03-14T12:23:48;97081.75;;;13.98;64.39
74181;BME280;62544;50.826;14.354;2023-03-14T12:28:19;97080.44;;;13.87;63.54
74181;BME280;62544;50.826;14.354;2023-03-14T12:32:30;97077.70;;;13.83;62.96
74181;BME280;62544;50.826;14.354;2023-03-14T12:41:26;97072.42;;;13.76;62.94
74181;BME280;62544;50.826;14.354;2023-03-14T12:45:42;97069.65;;;13.72;68.97
74181;BME280;62544;50.826;14.354;2023-03-14T12:50:14;97066.46;;;13.75;66.25
74181;BME280;62544;50.826;14.354;2023-03-14T12:54:43;97060.36;;;13.81;65.30
74181;BME280;62544;50.826;14.354;2023-03-14T13:03:19;97046.04;;;14.05;58.29
74181;BME280;62544;50.826;14.354;2023-03-14T13:08:02;97038.09;;;14.31;55.56
74181;BME280;62544;50.826;14.354;2023-03-14T13:12:10;97030.20;;;14.86;51.11
74181;BME280;62544;50.826;14.354;2023-03-14T13:16:30;97024.41;;;15.69;47.79
74181;BME280;62544;50.826;14.354;2023-03-14T13:20:55;97018.77;;;15.99;49.07
74181;BME280;62544;50.826;14.354;2023-03-14T13:25:18;97011.80;;;15.96;52.11
74181;BME280;62544;50.826;14.354;2023-03-14T13:29:42;97009.57;;;15.76;58.19
74181;BME280;62544;50.826;14.354;2023-03-14T13:34:07;97006.66;;;15.53;59.72
74181;BME280;62544;50.826;14.354;2023-03-14T13:38:34;97007.64;;;15.32;58.77
74181;BME280;62544;50.826;14.354;2023-03-14T13:43:13;97010.86;;;15.04;60.63
74181;BME280;62544;50.826;14.354;2023-03-14T13:47:18;97016.09;;;14.68;66.23
74181;BME280;62544;50.826;14.354;2023-03-14T13:51:42;97019.92;;;14.38;68.60
74181;BME280;62544;50.826;14.354;2023-03-14T13:56:08;97024.10;;;14.11;72.11
74181;BME280;62544;50.826;14.354;2023-03-14T14:00:30;97027.51;;;13.92;73.49
74181;BME280;62544;50.826;14.354;2023-03-14T14:04:55;97029.52;;;13.87;72.89
74181;BME280;62544;50.826;14.354;2023-03-14T14:09:28;97031.09;;;13.85;70.65
74181;BME280;62544;50.826;14.354;2023-03-14T14:13:42;97031.92;;;13.68;72.09
74181;BME280;62544;50.826;14.354;2023-03-14T14:18:07;97033.31;;;13.46;75.25
74181;BME280;62544;50.826;14.354;2023-03-14T14:22:30;97033.35;;;13.30;76.98
74181;BME280;62544;50.826;14.354;2023-03-14T14:26:58;97032.08;;;13.23;77.61
74181;BME280;62544;50.826;14.354;2023-03-14T14:31:20;97030.65;;;13.23;76.18
74181;BME280;62544;50.826;14.354;2023-03-14T14:35:42;97028.19;;;13.19;75.89
74181;BME280;62544;50.826;14.354;2023-03-14T14:40:08;97026.36;;;13.23;74.75
74181;BME280;62544;50.826;14.354;2023-03-14T14:44:32;97025.19;;;13.26;74.37
74181;BME280;62544;50.826;14.354;2023-03-14T14:48:55;97023.07;;;13.31;74.42
74181;BME280;62544;50.826;14.354;2023-03-14T14:57:47;97028.56;;;13.15;77.74
74181;BME280;62544;50.826;14.354;2023-03-14T15:02:09;97030.27;;;12.97;79.70
74181;BME280;62544;50.826;14.354;2023-03-14T15:06:30;97027.23;;;12.85;82.34
74181;BME280;62544;50.826;14.354;2023-03-14T15:10:54;97018.62;;;13.06;76.21
74181;BME280;62544;50.826;14.354;2023-03-14T15:15:18;97010.60;;;13.79;66.92
74181;BME280;62544;50.826;14.354;2023-03-14T15:19:42;97004.86;;;14.55;62.55
74181;BME280;62544;50.826;14.354;2023-03-14T15:24:07;97001.25;;;15.02;64.18
74181;BME280;62544;50.826;14.354;2023-03-14T15:28:30;96998.74;;;15.50;63.08
74181;BME280;62544;50.826;14.354;2023-03-14T15:32:54;96997.12;;;16.18;58.01
74181;BME280;62544;50.826;14.354;2023-03-14T15:37:18;96995.31;;;16.84;56.53
74181;BME280;62544;50.826;14.354;2023-03-14T15:41:42;96995.33;;;17.07;58.89
74181;BME280;62544;50.826;14.354;2023-03-14T15:46:08;96996.23;;;16.86;65.31
74181;BME280;62544;50.826;14.354;2023-03-14T15:50:30;96997.77;;;16.43;69.85
74181;BME280;62544;50.826;14.354;2023-03-14T15:54:54;96999.19;;;15.85;74.08
74181;BME280;62544;50.826;14.354;2023-03-14T15:59:18;96999.99;;;15.30;75.13
74181;BME280;62544;50.826;14.354;2023-03-14T16:03:43;97001.28;;;14.82;77.29
74181;BME280;62544;50.826;14.354;2023-03-14T16:08:06;97004.16;;;14.39;78.18
74181;BME280;62544;50.826;14.354;2023-03-14T16:12:30;97006.39;;;13.96;80.69
74181;BME280;62544;50.826;14.354;2023-03-14T16:16:54;97007.89;;;13.56;81.37
74181;BME280;62544;50.826;14.354;2023-03-14T16:21:18;97008.84;;;13.26;81.31
74181;BME280;62544;50.826;14.354;2023-03-14T16:25:43;97010.03;;;13.03;81.49
74181;BME280;62544;50.826;14.354;2023-03-14T16:30:06;97009.60;;;12.82;83.12
74181;BME280;62544;50.826;14.354;2023-03-14T16:34:30;97009.38;;;12.59;83.47
74181;BME280;62544;50.826;14.354;2023-03-14T16:38:54;97009.20;;;12.41;83.86
74181;BME280;62544;50.826;14.354;2023-03-14T16:43:18;97009.52;;;12.26;84.30
74181;BME280;62544;50.826;14.354;2023-03-14T16:47:42;97010.94;;;12.13;83.82
74181;BME280;62544;50.826;14.354;2023-03-14T16:52:06;97012.87;;;12.05;83.23
74181;BME280;62544;50.826;14.354;2023-03-14T16:56:30;97017.17;;;12.03;82.21
74181;BME280;62544;50.826;14.354;2023-03-14T17:00:54;97023.01;;;12.02;82.09
74181;BME280;62544;50.826;14.354;2023-03-14T17:05:18;97031.59;;;11.93;83.70
74181;BME280;62544;50.826;14.354;2023-03-14T17:09:42;97042.60;;;11.83;84.71
74181;BME280;62544;50.826;14.354;2023-03-14T17:14:07;97055.63;;;11.79;83.60
74181;BME280;62544;50.826;14.354;2023-03-14T17:18:30;97070.00;;;11.77;82.81
74181;BME280;62544;50.826;14.354;2023-03-14T17:22:54;97089.61;;;11.70;83.06
74181;BME280;62544;50.826;14.354;2023-03-14T17:27:18;97109.55;;;11.52;84.79
74181;BME280;62544;50.826;14.354;2023-03-14T17:31:42;97135.10;;;11.32;86.53
74181;BME280;62544;50.826;14.354;2023-03-14T17:36:06;97185.25;;;10.90;83.84
74181;BME280;62544;50.826;14.354;2023-03-14T17:40:30;97228.78;;;10.14;84.21
74181;BME280;62544;50.826;14.354;2023-03-14T17:44:55;97268.73;;;9.32;88.08
74181;BME280;62544;50.826;14.354;2023-03-14T17:49:18;97304.13;;;8.61;86.97
74181;BME280;62544;50.826;14.354;2023-03-14T17:53:42;97334.16;;;8.01;89.40
74181;BME280;62544;50.826;14.354;2023-03-14T17:58:06;97361.60;;;7.60;88.48
74181;BME280;62544;50.826;14.354;2023-03-14T18:02:30;97385.02;;;7.21;90.52
74181;BME280;62544;50.826;14.354;2023-03-14T18:06:54;97414.25;;;6.83;91.18
74181;BME280;62544;50.826;14.354;2023-03-14T18:11:18;97444.31;;;6.42;93.43
74181;BME280;62544;50.826;14.354;2023-03-14T18:15:42;97477.58;;;6.01;93.90
74181;BME280;62544;50.826;14.354;2023-03-14T18:20:06;97515.75;;;5.57;90.67
74181;BME280;62544;50.826;14.354;2023-03-14T18:24:30;97550.45;;;5.15;92.30
74181;BME280;62544;50.826;14.354;2023-03-14T18:28:54;97580.30;;;4.83;92.73
74181;BME280;62544;50.826;14.354;2023-03-14T18:33:21;97606.59;;;4.54;91.93
74181;BME280;62544;50.826;14.354;2023-03-14T18:37:42;97633.10;;;4.16;92.44
74181;BME280;62544;50.826;14.354;2023-03-14T18:42:06;97658.54;;;3.79;95.12
74181;BME280;62544;50.826;14.354;2023-03-14T18:46:30;97681.93;;;3.52;94.53
74181;BME280;62544;50.826;14.354;2023-03-14T18:50:54;97702.92;;;3.33;93.65
74181;BME280;62544;50.826;14.354;2023-03-14T18:55:18;97726.14;;;3.16;92.13
74181;BME280;62544;50.826;14.354;2023-03-14T18:59:42;97751.95;;;2.99;94.26
74181;BME280;62544;50.826;14.354;2023-03-14T19:04:06;97774.91;;;2.90;92.41
74181;BME280;62544;50.826;14.354;2023-03-14T19:08:30;97793.00;;;2.88;90.58
74181;BME280;62544;50.826;14.354;2023-03-14T19:12:54;97811.77;;;2.77;92.53
74181;BME280;62544;50.826;14.354;2023-03-14T19:17:18;97828.33;;;2.66;92.98
74181;BME280;62544;50.826;14.354;2023-03-14T19:21:42;97843.75;;;2.56;92.94
74181;BME280;62544;50.826;14.354;2023-03-14T19:26:06;97859.15;;;2.49;92.76
74181;BME280;62544;50.826;14.354;2023-03-14T19:30:30;97874.96;;;2.50;91.72
74181;BME280;62544;50.826;14.354;2023-03-14T19:34:54;97887.27;;;2.51;90.17
74181;BME280;62544;50.826;14.354;2023-03-14T19:39:18;97900.05;;;2.50;89.57
74181;BME280;62544;50.826;14.354;2023-03-14T19:43:42;97915.53;;;2.44;89.53
74181;BME280;62544;50.826;14.354;2023-03-14T19:48:06;97928.69;;;2.40;89.28
74181;BME280;62544;50.826;14.354;2023-03-14T19:52:30;97943.72;;;2.39;89.82
74181;BME280;62544;50.826;14.354;2023-03-14T19:56:54;97956.67;;;2.39;90.83
74181;BME280;62544;50.826;14.354;2023-03-14T20:01:18;97971.04;;;2.43;89.76
74181;BME280;62544;50.826;14.354;2023-03-14T20:05:42;97981.89;;;2.47;89.15
74181;BME280;62544;50.826;14.354;2023-03-14T20:10:06;97993.77;;;2.54;88.54
74181;BME280;62544;50.826;14.354;2023-03-14T20:14:30;98006.23;;;2.55;90.25
74181;BME280;62544;50.826;14.354;2023-03-14T20:18:54;98014.20;;;2.59;89.65
74181;BME280;62544;50.826;14.354;2023-03-14T20:23:18;98023.27;;;2.69;89.08
74181;BME280;62544;50.826;14.354;2023-03-14T20:27:42;98032.78;;;2.82;88.06
74181;BME280;62544;50.826;14.354;2023-03-14T20:32:06;98045.20;;;2.93;86.61
74181;BME280;62544;50.826;14.354;2023-03-14T20:36:30;98059.74;;;2.98;88.11
74181;BME280;62544;50.826;14.354;2023-03-14T20:40:57;98074.08;;;2.99;87.85
74181;BME280;62544;50.826;14.354;2023-03-14T20:45:18;98088.79;;;3.05;87.03
74181;BME280;62544;50.826;14.354;2023-03-14T20:49:42;98104.35;;;3.06;86.68
74181;BME280;62544;50.826;14.354;2023-03-14T20:54:06;98118.17;;;3.04;87.77
74181;BME280;62544;50.826;14.354;2023-03-14T20:58:30;98130.81;;;3.03;87.03
74181;BME280;62544;50.826;14.354;2023-03-14T21:02:54;98138.65;;;3.05;85.45
74181;BME280;62544;50.826;14.354;2023-03-14T21:07:18;98147.78;;;3.04;86.76
74181;BME280;62544;50.826;14.354;2023-03-14T21:11:42;98157.47;;;3.03;85.74
74181;BME280;62544;50.826;14.354;2023-03-14T21:16:06;98162.83;;;3.01;87.19
74181;BME280;62544;50.826;14.354;2023-03-14T21:20:31;98169.67;;;2.96;85.22
74181;BME280;62544;50.826;14.354;2023-03-14T21:24:57;98177.01;;;2.94;85.76
74181;BME280;62544;50.826;14.354;2023-03-14T21:29:18;98184.94;;;2.89;86.17
74181;BME280;62544;50.826;14.354;2023-03-14T21:33:42;98191.27;;;2.87;86.90
74181;BME280;62544;50.826;14.354;2023-03-14T21:38:06;98198.53;;;2.85;87.16
74181;BME280;62544;50.826;14.354;2023-03-14T21:42:30;98203.03;;;2.82;87.18
74181;BME280;62544;50.826;14.354;2023-03-14T21:46:54;98209.31;;;2.78;86.90
74181;BME280;62544;50.826;14.354;2023-03-14T21:51:18;98213.78;;;2.75;85.87
74181;BME280;62544;50.826;14.354;2023-03-14T21:55:42;98219.08;;;2.70;85.95
74181;BME280;62544;50.826;14.354;2023-03-14T22:00:06;98226.98;;;2.65;85.78
74181;BME280;62544;50.826;14.354;2023-03-14T22:04:30;98233.15;;;2.52;87.91
74181;BME280;62544;50.826;14.354;2023-03-14T22:08:54;98240.06;;;2.39;88.11
74181;BME280;62544;50.826;14.354;2023-03-14T22:13:18;98244.80;;;2.27;88.81
74181;BME280;62544;50.826;14.354;2023-03-14T22:17:41;98252.25;;;2.18;87.13
74181;BME280;62544;50.826;14.354;2023-03-14T22:22:06;98261.13;;;2.10;87.86
74181;BME280;62544;50.826;14.354;2023-03-14T22:26:30;98268.97;;;2.00;87.43
74181;BME280;62544;50.826;14.354;2023-03-14T22:30:53;98276.45;;;1.92;84.92
74181;BME280;62544;50.826;14.354;2023-03-14T22:35:17;98284.84;;;1.85;86.21
74181;BME280;62544;50.826;14.354;2023-03-14T22:39:42;98291.85;;;1.81;85.04
74181;BME280;62544;50.826;14.354;2023-03-14T22:44:06;98301.01;;;1.75;84.82
74181;BME280;62544;50.826;14.354;2023-03-14T22:48:30;98310.55;;;1.66;85.82
74181;BME280;62544;50.826;14.354;2023-03-14T22:52:54;98320.89;;;1.57;87.13
74181;BME280;62544;50.826;14.354;2023-03-14T22:57:17;98331.06;;;1.45;87.80
74181;BME280;62544;50.826;14.354;2023-03-14T23:01:41;98340.17;;;1.39;86.00
74181;BME280;62544;50.826;14.354;2023-03-14T23:06:06;98347.71;;;1.36;84.97
74181;BME280;62544;50.826;14.354;2023-03-14T23:10:30;98355.96;;;1.35;83.93
74181;BME280;62544;50.826;14.354;2023-03-14T23:14:54;98365.45;;;1.30;88.21
74181;BME280;62544;50.826;14.354;2023-03-14T23:19:18;98373.64;;;1.22;87.05
74181;BME280;62544;50.826;14.354;2023-03-14T23:23:42;98380.35;;;1.16;88.45
74181;BME280;62544;50.826;14.354;2023-03-14T23:28:06;98388.53;;;1.12;89.01
74181;BME280;62544;50.826;14.354;2023-03-14T23:32:30;98395.89;;;1.04;89.38
74181;BME280;62544;50.826;14.354;2023-03-14T23:36:54;98401.43;;;1.01;88.73
74181;BME280;62544;50.826;14.354;2023-03-14T23:41:18;98406.84;;;0.98;85.01
74181;BME280;62544;50.826;14.354;2023-03-14T23:45:42;98410.85;;;0.98;85.80
74181;BME280;62544;50.826;14.354;2023-03-14T23:50:06;98413.87;;;1.00;84.32